Time;durP1;ratioP1;P1;durP2;ratioP2;P2;SDS_P1;SDS_P2;PMS_P1;PMS_P2;Temp;Humidity;BMP_temperature;BMP_pressure;BME280_temperature;BME280_humidity;BME280_pressure;Samples;Min_cycle;Max_cycle;Signal;HPM_P1;HPM_P2
2022/10/26 00:00:52;;;;;;;;;0.00;0.00;;;;;20.06;47.82;100090.44;5052911;28;46679;-72
2022/10/26 00:03:18;;;;;;;;;0.00;0.00;;;;;20.11;48.11;100108.91;5037781;28;45540;-72
2022/10/26 00:05:44;;;;;;;;;0.00;0.00;;;;;19.99;47.58;100089.66;5038004;28;45429;-71
2022/10/26 00:08:10;;;;;;;;;0.00;0.00;;;;;19.93;48.28;100092.41;5037761;28;45429;-72
2022/10/26 00:10:37;;;;;;;;;0.00;0.00;;;;;19.96;48.79;100107.41;5037396;28;46131;-72
2022/10/26 00:13:04;;;;;;;;;0.00;0.00;;;;;19.91;48.64;100101.28;5037568;28;45494;-72
2022/10/26 00:15:31;;;;;;;;;0.00;0.00;;;;;19.80;49.36;100099.69;5061755;28;45552;-72
2022/10/26 00:17:56;;;;;;;;;0.00;0.00;;;;;19.76;49.35;100097.97;5037945;28;45582;-72
2022/10/26 00:20:22;;;;;;;;;1.00;0.67;;;;;19.62;50.21;100106.09;5037255;28;45460;-71
2022/10/26 00:22:48;;;;;;;;;1.00;0.00;;;;;19.38;50.04;100085.25;5037297;28;45515;-72
2022/10/26 00:25:13;;;;;;;;;0.00;0.00;;;;;19.43;50.12;100099.28;5037371;28;45563;-72
2022/10/26 00:27:39;;;;;;;;;1.00;0.00;;;;;19.37;50.46;100102.03;5035849;28;45955;-72
2022/10/26 00:30:05;;;;;;;;;0.00;0.00;;;;;19.36;50.24;100110.84;5036952;28;45474;-72
2022/10/26 00:32:32;;;;;;;;;0.00;0.00;;;;;19.29;50.19;100110.06;5035948;28;45671;-72
2022/10/26 00:35:01;;;;;;;;;0.00;0.00;;;;;19.21;50.75;100110.16;5034885;28;45457;-73
2022/10/26 00:37:28;;;;;;;;;0.00;0.00;;;;;19.24;50.80;100123.38;5037651;28;45422;-72
2022/10/26 00:39:54;;;;;;;;;0.00;0.00;;;;;19.12;51.01;100115.59;5052699;28;47994;-72
2022/10/26 00:42:21;;;;;;;;;0.00;0.00;;;;;19.10;50.38;100121.78;5037855;28;45429;-72
2022/10/26 00:44:46;;;;;;;;;0.67;0.67;;;;;19.14;51.26;100136.72;5053870;28;45609;-72
2022/10/26 00:47:42;;;;;;;;;1.00;0.00;;;;;19.02;52.34;100129.78;5038659;28;45469;-72
2022/10/26 00:50:16;;;;;;;;;1.00;0.00;;;;;18.78;52.89;100102.69;5036472;28;46387;-72
2022/10/26 00:52:42;;;;;;;;;0.00;0.00;;;;;18.70;52.66;100112.47;5038609;28;45515;-72
2022/10/26 00:55:08;;;;;;;;;0.00;0.00;;;;;18.23;52.54;100039.78;5038383;28;45494;-72
2022/10/26 00:57:35;;;;;;;;;0.00;0.00;;;;;18.63;52.70;100109.00;5054022;28;45434;-73
2022/10/26 01:00:01;;;;;;;;;0.00;0.00;;;;;18.53;52.59;100095.91;5038568;28;46291;-73
2022/10/26 01:02:27;;;;;;;;;0.00;0.00;;;;;18.69;52.47;100129.25;5038178;28;45410;-72
2022/10/26 01:04:54;;;;;;;;;0.00;0.00;;;;;18.49;54.05;100125.00;5038380;28;45312;-72
2022/10/26 01:07:20;;;;;;;;;0.00;0.00;;;;;18.51;52.94;100132.06;5038543;28;45298;-72
2022/10/26 01:09:45;;;;;;;;;0.00;0.00;;;;;18.44;53.72;100140.06;5037810;28;45485;-72
2022/10/26 01:12:11;;;;;;;;;0.00;0.00;;;;;18.40;53.90;100142.72;5038144;28;45461;-72
2022/10/26 01:14:37;;;;;;;;;0.00;0.00;;;;;18.44;54.09;100153.28;5038240;28;45334;-72
2022/10/26 01:17:12;;;;;;;;;0.67;0.00;;;;;18.40;53.83;100156.84;5038649;28;45399;-72
2022/10/26 01:19:52;;;;;;;;;0.00;0.00;;;;;18.30;53.69;100141.91;5038116;28;45482;-72
2022/10/26 01:22:36;;;;;;;;;0.00;0.00;;;;;18.35;53.51;100153.34;5036764;28;45571;-72
2022/10/26 01:25:32;;;;;;;;;0.00;0.00;;;;;18.37;53.70;100162.16;5037118;28;45600;-72
2022/10/26 01:28:01;;;;;;;;;0.00;0.00;;;;;18.33;53.66;100160.41;5038309;28;45510;-73
2022/10/26 01:30:37;;;;;;;;;0.00;0.00;;;;;18.36;53.77;100168.31;5053197;28;47564;-72
2022/10/26 01:33:40;;;;;;;;;0.00;0.00;;;;;18.35;53.98;100163.06;5038106;28;45865;-72
2022/10/26 01:36:26;;;;;;;;;0.00;0.00;;;;;18.22;54.09;100151.69;5037838;28;45492;-72
2022/10/26 01:39:03;;;;;;;;;0.33;0.00;;;;;18.31;54.08;100171.91;5038044;28;45256;-73
2022/10/26 01:41:37;;;;;;;;;0.00;0.00;;;;;18.28;54.25;100173.69;5037727;28;45472;-78
2022/10/26 01:44:07;;;;;;;;;0.00;0.00;;;;;18.24;54.70;100171.97;5038026;28;45239;-73
2022/10/26 01:46:39;;;;;;;;;0.00;0.00;;;;;18.11;55.04;100157.06;5053551;28;45513;-73
2022/10/26 01:49:10;;;;;;;;;0.00;0.00;;;;;18.15;55.60;100171.16;5038542;28;45336;-73
2022/10/26 01:51:40;;;;;;;;;1.00;0.00;;;;;18.08;55.96;100173.84;5052857;28;45577;-79
2022/10/26 01:54:06;;;;;;;;;0.00;0.00;;;;;17.91;55.16;100167.78;5037656;28;45375;-73
2022/10/26 01:56:37;;;;;;;;;1.33;0.00;;;;;17.92;56.11;100184.50;5037723;28;45542;-74
2022/10/26 01:59:29;;;;;;;;;0.67;0.67;;;;;17.87;56.57;100187.19;5053371;28;45494;-73
2022/10/26 02:02:42;;;;;;;;;1.00;1.00;;;;;17.76;57.22;100176.63;5035212;28;45355;-73
2022/10/26 02:05:48;;;;;;;;;1.33;1.00;;;;;17.68;57.49;100176.66;5005224;28;45535;-73
2022/10/26 02:08:33;;;;;;;;;0.00;0.00;;;;;17.60;57.41;100178.47;5013346;28;45411;-73
2022/10/26 02:11:16;;;;;;;;;1.00;1.00;;;;;17.54;58.02;100172.34;5037492;28;45564;-73
2022/10/26 02:13:47;;;;;;;;;0.00;0.00;;;;;17.47;58.18;100177.66;5035929;28;45625;-73
2022/10/26 02:16:36;;;;;;;;;1.00;1.00;;;;;17.21;58.11;100135.50;5037300;28;45232;-73
2022/10/26 02:19:28;;;;;;;;;0.00;0.00;;;;;17.28;58.01;100155.69;5037603;28;45505;-73
2022/10/26 02:22:18;;;;;;;;;0.00;0.00;;;;;17.22;58.29;100153.09;5036178;28;45334;-73
2022/10/26 02:24:46;;;;;;;;;0.33;0.00;;;;;17.30;58.17;100169.78;5036626;28;45489;-73
2022/10/26 02:27:17;;;;;;;;;0.67;0.33;;;;;17.30;57.90;100174.19;5037099;28;45488;-73
2022/10/26 02:29:43;;;;;;;;;0.67;0.67;;;;;17.18;58.02;100150.47;5037189;28;45307;-78
2022/10/26 02:32:10;;;;;;;;;0.00;0.00;;;;;17.21;58.66;100163.66;5036033;28;45430;-75
2022/10/26 02:34:38;;;;;;;;;1.00;1.00;;;;;16.69;59.29;100093.41;5037194;28;46158;-73
2022/10/26 02:37:06;;;;;;;;;0.00;0.00;;;;;17.08;59.27;100168.09;5037165;28;45435;-73
2022/10/26 02:39:33;;;;;;;;;2.00;1.00;;;;;17.13;59.23;100179.53;5036907;28;45436;-73
2022/10/26 02:42:06;;;;;;;;;0.00;0.00;;;;;17.06;60.36;100176.00;5052762;28;45647;-73
2022/10/26 02:44:41;;;;;;;;;1.00;0.00;;;;;16.95;59.31;100161.09;5036868;28;46193;-72
2022/10/26 02:47:07;;;;;;;;;0.00;0.00;;;;;16.92;58.92;100153.19;5052707;28;45568;-73
2022/10/26 02:49:33;;;;;;;;;0.00;0.00;;;;;16.85;59.68;100150.56;5052747;28;45538;-74
2022/10/26 02:51:59;;;;;;;;;0.00;0.00;;;;;16.96;59.93;100183.97;5052411;28;45292;-73
2022/10/26 02:54:52;;;;;;;;;0.00;0.00;;;;;16.93;59.89;100174.31;5035537;28;46498;-72
2022/10/26 02:57:38;;;;;;;;;0.00;0.00;;;;;16.82;59.78;100161.13;5052273;28;45539;-72
2022/10/26 03:00:09;;;;;;;;;0.33;0.33;;;;;16.86;59.93;100170.78;5037256;28;45292;-73
2022/10/26 03:02:35;;;;;;;;;0.67;0.00;;;;;16.63;60.52;100161.97;5052845;28;45283;-72
2022/10/26 03:05:15;;;;;;;;;2.00;1.00;;;;;16.65;61.70;100178.69;5035188;28;46164;-78
2022/10/26 03:07:40;;;;;;;;;0.00;0.00;;;;;16.52;60.62;100155.84;5034550;28;45293;-73
2022/10/26 03:10:06;;;;;;;;;0.00;0.00;;;;;16.45;61.04;100150.59;5052391;28;45506;-73
2022/10/26 03:12:32;;;;;;;;;1.00;0.67;;;;;16.56;61.55;100169.03;5036617;28;45207;-73
2022/10/26 03:14:57;;;;;;;;;0.67;0.67;;;;;16.44;61.45;100167.28;5036582;28;45609;-73
2022/10/26 03:17:23;;;;;;;;;1.00;0.00;;;;;16.40;61.33;100169.91;5036706;28;45363;-76
2022/10/26 03:19:48;;;;;;;;;0.00;0.00;;;;;16.35;61.58;100164.63;5039286;28;45444;-73
2022/10/26 03:22:14;;;;;;;;;0.33;0.00;;;;;16.43;61.27;100183.09;5040385;28;45206;-80
2022/10/26 03:24:39;;;;;;;;;0.00;0.00;;;;;16.41;61.65;100172.56;5040421;28;45552;-80
2022/10/26 03:27:05;;;;;;;;;0.00;0.00;;;;;16.40;61.34;100175.19;5056035;28;45538;-80
2022/10/26 03:29:30;;;;;;;;;1.00;0.00;;;;;16.45;61.78;100182.22;5038660;28;45515;-79
2022/10/26 03:31:56;;;;;;;;;1.00;1.00;;;;;16.36;61.82;100163.75;5040252;28;45345;-73
2022/10/26 03:34:22;;;;;;;;;1.33;1.00;;;;;16.53;61.64;100186.59;5039573;28;46130;-80
2022/10/26 03:36:47;;;;;;;;;1.00;1.00;;;;;16.39;61.78;100160.22;5038449;28;45478;-79
2022/10/26 03:39:13;;;;;;;;;1.00;1.00;;;;;16.46;62.52;100177.81;5039747;28;45297;-73
2022/10/26 03:41:39;;;;;;;;;1.00;1.00;;;;;16.39;63.07;100189.22;5040319;28;45420;-73
2022/10/26 03:44:04;;;;;;;;;1.00;1.00;;;;;16.07;64.13;100150.56;5038264;28;46460;-73
2022/10/26 03:46:30;;;;;;;;;1.00;1.00;;;;;16.00;62.75;100160.22;5039556;28;45430;-73
2022/10/26 03:48:55;;;;;;;;;1.00;1.00;;;;;16.05;63.01;100176.88;5039265;28;45374;-73
2022/10/26 03:51:21;;;;;;;;;1.00;1.00;;;;;15.97;62.81;100162.81;5038467;28;45440;-73
2022/10/26 03:53:46;;;;;;;;;1.00;1.00;;;;;15.97;62.96;100170.72;5039229;28;46688;-73
2022/10/26 03:56:12;;;;;;;;;1.00;1.00;;;;;15.89;62.87;100157.53;5039380;28;45449;-73
2022/10/26 03:58:37;;;;;;;;;0.00;0.00;;;;;15.85;63.55;100160.19;5039908;28;45492;-77
2022/10/26 04:01:03;;;;;;;;;0.67;0.67;;;;;15.87;63.77;100166.31;5039761;28;45334;-78
2022/10/26 04:03:28;;;;;;;;;1.00;1.00;;;;;15.90;63.56;100182.16;5039297;28;45473;-80
2022/10/26 04:05:54;;;;;;;;;1.00;0.00;;;;;15.81;63.64;100166.31;5039334;28;45561;-81
2022/10/26 04:08:19;;;;;;;;;0.00;0.00;;;;;15.84;63.76;100171.59;5054727;28;45479;-79
2022/10/26 04:10:46;;;;;;;;;1.00;1.00;;;;;15.87;63.35;100176.88;5054756;28;45687;-72
2022/10/26 04:13:12;;;;;;;;;1.00;1.00;;;;;15.86;63.66;100176.00;5039513;28;45463;-73
2022/10/26 04:15:37;;;;;;;;;1.00;1.00;;;;;15.89;63.60;100180.38;5039019;28;45559;-72
2022/10/26 04:18:03;;;;;;;;;0.00;0.00;;;;;15.70;64.21;100159.25;5039484;28;45495;-73
2022/10/26 04:20:31;;;;;;;;;1.00;1.00;;;;;15.78;62.98;100180.38;5039382;28;45319;-73
2022/10/26 04:22:59;;;;;;;;;1.33;1.00;;;;;15.82;64.00;100197.94;5039064;28;45496;-73
2022/10/26 04:25:25;;;;;;;;;1.00;1.00;;;;;15.77;64.30;100185.63;5054467;28;45550;-72
2022/10/26 04:27:51;;;;;;;;;2.00;1.00;;;;;15.77;64.02;100190.88;5039152;28;45460;-72
2022/10/26 04:30:17;;;;;;;;;2.00;1.00;;;;;15.76;63.99;100203.19;5037446;28;45308;-72
2022/10/26 04:32:43;;;;;;;;;1.00;1.00;;;;;15.62;64.00;100187.31;5038697;28;45942;-73
2022/10/26 04:35:08;;;;;;;;;1.00;1.00;;;;;15.53;64.29;100182.00;5038780;28;45344;-72
2022/10/26 04:37:33;;;;;;;;;1.00;1.00;;;;;15.63;64.19;100204.84;5038897;28;45251;-73
2022/10/26 04:39:59;;;;;;;;;1.00;1.00;;;;;15.66;64.13;100209.25;5038058;28;45522;-73
2022/10/26 04:42:24;;;;;;;;;1.00;1.00;;;;;15.59;64.52;100202.19;5038763;28;45423;-73
2022/10/26 04:44:50;;;;;;;;;2.00;2.00;;;;;15.43;64.32;100169.66;5038785;28;45484;-73
2022/10/26 04:47:15;;;;;;;;;3.00;1.00;;;;;15.55;64.74;100201.31;5038899;28;45625;-73
2022/10/26 04:49:41;;;;;;;;;1.67;1.00;;;;;15.54;64.61;100203.91;5039076;28;45508;-72
2022/10/26 04:52:06;;;;;;;;;1.00;1.00;;;;;15.60;64.73;100211.88;5053652;28;47276;-72
2022/10/26 04:54:32;;;;;;;;;1.00;1.00;;;;;15.55;64.70;100201.31;5038291;28;45461;-72
2022/10/26 04:56:57;;;;;;;;;0.00;0.00;;;;;15.51;65.00;100200.41;5038675;28;45235;-72
2022/10/26 04:59:23;;;;;;;;;1.67;1.00;;;;;15.47;64.82;100195.13;5038681;28;45341;-72
2022/10/26 05:01:48;;;;;;;;;1.67;1.00;;;;;15.50;64.85;100201.28;5038371;28;46659;-73
2022/10/26 05:04:14;;;;;;;;;6.00;6.00;;;;;15.49;64.95;100196.00;5038841;28;45439;-72
2022/10/26 05:06:40;;;;;;;;;3.67;3.33;;;;;15.43;65.09;100190.72;5038235;28;45503;-73
2022/10/26 05:09:05;;;;;;;;;4.00;3.33;;;;;15.56;65.10;100231.13;5038767;28;45349;-72
2022/10/26 05:11:31;;;;;;;;;1.67;1.67;;;;;15.48;65.38;100223.22;5038268;28;45490;-72
2022/10/26 05:13:56;;;;;;;;;0.00;0.00;;;;;15.39;66.10;100221.41;5038397;28;45263;-73
2022/10/26 05:16:22;;;;;;;;;1.00;1.00;;;;;15.37;65.49;100224.91;5038109;28;45345;-73
2022/10/26 05:18:50;;;;;;;;;1.00;0.67;;;;;15.37;65.63;100228.41;5038130;28;45628;-73
2022/10/26 05:21:18;;;;;;;;;2.00;1.67;;;;;15.44;65.28;100238.13;5038484;28;45558;-72
2022/10/26 05:23:49;;;;;;;;;2.00;1.67;;;;;15.46;65.75;100243.41;5038500;28;45239;-72
2022/10/26 05:26:16;;;;;;;;;1.67;1.33;;;;;15.35;65.41;100227.53;5038453;28;45324;-73
2022/10/26 05:28:41;;;;;;;;;3.00;2.00;;;;;15.28;65.65;100216.09;5036844;28;45284;-73
2022/10/26 05:31:07;;;;;;;;;4.00;4.00;;;;;15.24;66.18;100231.84;5037229;28;46154;-73
2022/10/26 05:33:32;;;;;;;;;3.00;3.00;;;;;15.16;65.94;100223.03;5036299;28;45375;-73
2022/10/26 05:35:58;;;;;;;;;4.00;4.00;;;;;15.21;65.72;100243.25;5037979;28;45490;-73
2022/10/26 05:38:23;;;;;;;;;2.00;2.00;;;;;15.20;66.30;100241.50;5038245;28;45389;-72
2022/10/26 05:40:51;;;;;;;;;2.00;1.00;;;;;15.16;66.96;100247.63;5037195;28;45423;-72
2022/10/26 05:43:17;;;;;;;;;2.00;2.00;;;;;15.03;67.49;100253.66;5037982;28;45445;-72
2022/10/26 05:45:43;;;;;;;;;3.00;2.00;;;;;14.90;67.48;100243.06;5036676;28;45790;-72
2022/10/26 05:48:09;;;;;;;;;2.33;2.00;;;;;14.92;67.03;100237.78;5037482;28;45610;-72
2022/10/26 05:50:35;;;;;;;;;3.00;2.00;;;;;14.95;66.77;100239.56;5037017;28;46275;-72
2022/10/26 05:53:01;;;;;;;;;3.00;2.00;;;;;15.01;66.99;100243.13;5037228;28;45493;-72
2022/10/26 05:55:27;;;;;;;;;2.67;1.33;;;;;14.89;66.68;100219.34;5036373;28;45482;-72
2022/10/26 05:57:52;;;;;;;;;2.50;2.00;;;;;15.03;66.65;100237.88;5037879;28;45389;-72
2022/10/26 06:00:22;;;;;;;;;2.33;2.33;;;;;14.86;66.65;100196.56;5037750;28;46155;-72
2022/10/26 06:03:06;;;;;;;;;2.67;2.00;;;;;15.21;66.52;100247.63;5036539;28;45969;-72
2022/10/26 06:05:37;;;;;;;;;1.00;1.00;;;;;15.23;66.41;100243.25;5035129;28;45473;-70
2022/10/26 06:08:09;;;;;;;;;2.33;2.00;;;;;15.23;66.14;100224.84;5034790;28;45420;-71
2022/10/26 06:10:36;;;;;;;;;3.67;3.00;;;;;15.22;65.77;100218.72;5034296;28;45399;-71
2022/10/26 06:13:01;;;;;;;;;4.00;4.00;;;;;15.37;65.80;100230.19;5036241;28;45353;-72
2022/10/26 06:15:34;;;;;;;;;3.00;2.33;;;;;15.27;65.57;100214.31;5036625;28;45488;-72
2022/10/26 06:18:35;;;;;;;;;2.33;2.00;;;;;15.42;65.67;100233.69;5036879;28;45612;-72
2022/10/26 06:21:21;;;;;;;;;2.67;2.00;;;;;15.44;65.83;100238.13;5017017;28;45328;-71
2022/10/26 06:23:59;;;;;;;;;1.00;1.00;;;;;15.50;64.18;100224.13;5033837;28;45399;-71
2022/10/26 06:27:21;;;;;;;;;3.33;2.00;;;;;15.54;65.13;100215.34;5036274;28;45398;-72
2022/10/26 06:29:59;;;;;;;;;2.00;2.00;;;;;15.47;65.50;100206.53;4955191;28;45523;-72
2022/10/26 06:32:25;;;;;;;;;11.75;9.00;;;;;15.52;65.13;100198.69;4954898;28;46125;-78
2022/10/26 06:34:58;;;;;;;;;5.00;3.00;;;;;15.54;64.81;100196.94;4998395;28;45526;-72
2022/10/26 06:37:24;;;;;;;;;1.00;1.00;;;;;15.58;64.50;100193.44;5032339;28;45436;-73
2022/10/26 06:39:51;;;;;;;;;2.00;1.00;;;;;15.71;64.21;100204.88;5036666;28;45350;-72
2022/10/26 06:42:17;;;;;;;;;1.67;1.67;;;;;15.81;64.19;100208.44;5035777;28;46415;-78
2022/10/26 06:44:43;;;;;;;;;3.00;2.00;;;;;15.84;63.68;100188.28;5035620;28;45512;-72
2022/10/26 06:47:25;;;;;;;;;1.67;1.00;;;;;16.06;62.64;100212.03;5034985;28;45414;-72
2022/10/26 06:50:22;;;;;;;;;2.00;1.00;;;;;16.24;62.43;100205.94;5033963;28;45239;-73
2022/10/26 06:53:14;;;;;;;;;1.00;1.00;;;;;16.24;62.49;100193.63;5037174;28;46163;-73
2022/10/26 06:55:42;;;;;;;;;3.00;2.00;;;;;16.50;61.78;100213.84;5038172;28;45465;-72
2022/10/26 06:58:16;;;;;;;;;2.00;2.00;;;;;16.63;61.80;100220.00;5040017;28;45396;-73
2022/10/26 07:00:43;;;;;;;;;2.00;2.00;;;;;16.74;61.52;100228.78;5040352;28;45860;-73
2022/10/26 07:03:09;;;;;;;;;3.00;3.00;;;;;16.86;61.40;100231.44;5038794;28;46615;-73
2022/10/26 07:05:34;;;;;;;;;2.00;2.00;;;;;16.92;60.92;100227.06;5040305;28;45489;-73
2022/10/26 07:08:00;;;;;;;;;1.00;0.00;;;;;17.04;59.67;100220.00;5040056;28;45320;-72
2022/10/26 07:10:26;;;;;;;;;5.00;4.00;;;;;17.20;60.25;100231.41;5040397;28;45343;-73
2022/10/26 07:12:51;;;;;;;;;4.33;3.00;;;;;17.22;60.31;100223.50;5039619;28;46320;-73
2022/10/26 07:15:17;;;;;;;;;3.00;2.67;;;;;17.33;59.94;100236.66;5039610;28;45429;-73
2022/10/26 07:17:47;;;;;;;;;2.00;2.00;;;;;17.47;60.05;100262.16;5038544;28;45466;-73
2022/10/26 07:20:17;;;;;;;;;2.00;2.00;;;;;17.45;60.37;100248.06;5040470;28;45284;-72
2022/10/26 07:22:43;;;;;;;;;2.00;2.00;;;;;17.54;60.16;100255.06;5040200;28;46565;-73
2022/10/26 07:25:11;;;;;;;;;2.33;2.00;;;;;17.64;59.58;100250.66;5039682;28;45705;-73
2022/10/26 07:27:36;;;;;;;;;2.00;1.33;;;;;17.88;59.73;100278.75;5038472;28;45298;-73
2022/10/26 07:30:03;;;;;;;;;1.67;1.67;;;;;17.94;59.27;100265.50;5039136;28;45625;-73
2022/10/26 07:32:29;;;;;;;;;2.00;1.00;;;;;18.11;58.87;100254.00;5039339;28;46715;-73
2022/10/26 07:34:55;;;;;;;;;3.50;2.50;;;;;18.44;58.57;100289.91;5039653;28;45472;-73
2022/10/26 07:37:20;;;;;;;;;1.67;0.67;;;;;18.49;57.19;100274.91;5055834;28;45239;-73
2022/10/26 07:39:46;;;;;;;;;2.67;2.33;;;;;18.66;56.98;100278.31;5040090;28;45463;-73
2022/10/26 07:42:11;;;;;;;;;4.00;2.00;;;;;18.84;56.04;100281.72;5039573;28;45416;-75
2022/10/26 07:44:37;;;;;;;;;0.67;0.67;;;;;19.00;55.65;100287.75;5039398;28;45404;-73
2022/10/26 07:47:02;;;;;;;;;8.33;6.67;;;;;19.44;55.60;100284.69;5038185;28;45624;-73
2022/10/26 07:49:28;;;;;;;;;4.33;2.67;;;;;20.12;54.19;100281.28;5039678;28;45521;-72
2022/10/26 07:51:53;;;;;;;;;2.33;1.00;;;;;20.04;54.05;100278.72;5054620;28;46760;-72
2022/10/26 07:54:19;;;;;;;;;2.00;2.00;;;;;19.96;54.62;100292.97;5037959;28;45485;-73
2022/10/26 07:56:47;;;;;;;;;1.00;1.00;;;;;21.48;52.33;100287.97;5039681;28;45334;-73
2022/10/26 07:59:13;;;;;;;;;4.00;3.00;;;;;23.79;47.18;100288.78;5039627;28;45500;-73
2022/10/26 08:01:38;;;;;;;;;6.67;3.67;;;;;23.32;47.44;100293.63;5037672;28;46407;-73
2022/10/26 08:04:04;;;;;;;;;7.00;6.00;;;;;24.22;46.87;100302.66;5038083;28;45552;-73
2022/10/26 08:06:29;;;;;;;;;5.33;4.67;;;;;24.04;45.82;100303.22;5039301;28;45399;-73
2022/10/26 08:08:55;;;;;;;;;3.00;3.00;;;;;24.85;44.29;100305.16;5039345;28;45475;-73
2022/10/26 08:11:20;;;;;;;;;3.00;3.00;;;;;25.08;44.25;100297.25;5039283;28;46007;-73
2022/10/26 08:13:46;;;;;;;;;8.67;8.00;;;;;25.32;43.84;100306.25;5039115;28;45263;-73
2022/10/26 08:16:12;;;;;;;;;5.00;4.33;;;;;27.49;41.67;100321.09;5039015;28;45484;-73
2022/10/26 08:18:37;;;;;;;;;3.33;2.00;;;;;28.90;37.67;100300.22;5039434;28;45400;-73
2022/10/26 08:21:06;;;;;;;;;4.00;3.00;;;;;27.95;39.10;100303.84;5038438;28;45509;-73
2022/10/26 08:23:32;;;;;;;;;3.00;2.33;;;;;29.67;37.46;100299.84;5038968;28;45254;-73
2022/10/26 08:25:59;;;;;;;;;3.00;3.00;;;;;28.87;37.91;100277.06;5038635;28;45238;-74
2022/10/26 08:28:26;;;;;;;;;2.00;1.33;;;;;30.40;36.30;100314.78;5039157;28;45552;-73
2022/10/26 08:30:51;;;;;;;;;3.00;2.33;;;;;31.94;33.94;100319.22;5038698;28;45479;-74
2022/10/26 08:33:16;;;;;;;;;4.00;3.00;;;;;32.86;32.55;100318.72;5038603;28;45871;-74
2022/10/26 08:35:42;;;;;;;;;6.33;5.00;;;;;33.31;32.14;100315.72;5038228;28;45333;-73
2022/10/26 08:38:07;;;;;;;;;4.00;4.00;;;;;33.77;31.35;100317.97;5038866;28;45385;-73
2022/10/26 08:40:38;;;;;;;;;3.67;3.67;;;;;34.30;31.07;100299.69;5038450;28;45482;-74
2022/10/26 08:43:14;;;;;;;;;2.00;2.00;;;;;34.30;27.72;100321.38;5038632;28;45285;-73
2022/10/26 08:45:49;;;;;;;;;4.33;2.67;;;;;33.87;30.99;100328.03;5037275;28;45518;-74
2022/10/26 08:48:20;;;;;;;;;4.00;2.67;;;;;34.64;29.72;100325.19;5038668;28;45489;-73
2022/10/26 08:51:19;;;;;;;;;1.67;1.67;;;;;32.92;32.05;100331.81;5038019;28;45439;-73
2022/10/26 08:54:13;;;;;;;;;1.67;1.67;;;;;31.28;33.54;100330.38;5006326;28;45262;-73
2022/10/26 08:56:48;;;;;;;;;2.00;2.00;;;;;30.08;35.82;100345.25;5038017;28;45310;-73
2022/10/26 08:59:43;;;;;;;;;6.00;5.00;;;;;29.18;37.70;100331.13;5036458;28;45458;-75
2022/10/26 09:02:13;;;;;;;;;4.00;3.00;;;;;29.01;39.71;100338.22;5036648;28;45670;-73
2022/10/26 09:04:38;;;;;;;;;2.00;2.00;;;;;29.32;38.99;100331.28;5036948;28;46066;-73
2022/10/26 09:07:32;;;;;;;;;4.00;2.67;;;;;29.90;38.42;100348.91;5036366;28;45423;-73
2022/10/26 09:10:26;;;;;;;;;3.00;3.00;;;;;30.68;37.51;100355.41;5038155;28;45494;-74
2022/10/26 09:13:17;;;;;;;;;1.67;1.00;;;;;31.15;34.69;100325.78;5037452;28;46122;-73
2022/10/26 09:16:13;;;;;;;;;2.33;1.67;;;;;31.58;33.18;100344.84;5035083;28;45295;-74
2022/10/26 09:19:34;;;;;;;;;2.00;2.00;;;;;32.21;32.99;100352.63;5037222;28;45452;-73
2022/10/26 09:22:06;;;;;;;;;2.33;1.67;;;;;32.79;31.36;100363.34;5030294;28;45784;-74
2022/10/26 09:24:37;;;;;;;;;3.00;2.33;;;;;32.78;31.29;100354.38;5037470;28;46552;-74
2022/10/26 09:27:29;;;;;;;;;1.33;1.33;;;;;32.70;30.96;100351.31;5035645;28;45468;-74
2022/10/26 09:30:13;;;;;;;;;2.00;1.67;;;;;32.88;30.87;100341.13;5037401;28;45524;-74
2022/10/26 09:32:52;;;;;;;;;2.33;1.67;;;;;33.11;30.05;100347.75;5035998;28;45477;-73
2022/10/26 09:35:42;;;;;;;;;1.00;1.00;;;;;33.43;29.72;100350.94;5037022;28;45636;-74
2022/10/26 09:38:29;;;;;;;;;2.67;1.67;;;;;33.55;28.91;100351.94;5035365;28;45185;-74
2022/10/26 09:41:18;;;;;;;;;1.67;1.67;;;;;32.90;29.35;100339.16;5035426;28;45380;-74
2022/10/26 09:43:48;;;;;;;;;1.67;1.67;;;;;32.70;29.27;100351.31;5024623;28;45401;-74
2022/10/26 09:46:27;;;;;;;;;2.00;2.00;;;;;32.35;30.58;100348.16;5036946;28;46508;-74
2022/10/26 09:49:03;;;;;;;;;2.00;1.67;;;;;31.88;31.59;100350.19;5037224;28;45336;-74
2022/10/26 09:51:29;;;;;;;;;0.67;0.00;;;;;31.63;32.36;100342.72;5036197;28;45237;-73
2022/10/26 09:53:56;;;;;;;;;1.00;1.00;;;;;31.35;32.55;100336.25;5037614;28;45506;-74
2022/10/26 09:56:25;;;;;;;;;3.00;1.67;;;;;31.26;31.70;100337.69;5035604;28;47889;-73
2022/10/26 09:59:01;;;;;;;;;1.00;1.00;;;;;31.15;31.40;100320.41;5035611;28;45384;-73
2022/10/26 10:01:26;;;;;;;;;2.33;2.00;;;;;31.08;30.56;100334.25;5036659;28;45459;-73
2022/10/26 10:04:18;;;;;;;;;1.00;1.00;;;;;30.99;31.33;100337.47;5037037;28;45255;-73
2022/10/26 10:06:46;;;;;;;;;2.00;0.67;;;;;30.89;31.95;100323.66;5036392;28;45594;-74
2022/10/26 10:09:18;;;;;;;;;4.00;1.67;;;;;30.79;31.96;100333.22;5035540;28;45904;-74
2022/10/26 10:11:53;;;;;;;;;4.00;2.67;;;;;31.03;31.39;100341.75;5036939;28;45519;-73
2022/10/26 10:14:21;;;;;;;;;2.33;1.67;;;;;31.26;31.59;100336.81;5037094;28;45542;-73
2022/10/26 10:17:09;;;;;;;;;1.33;1.33;;;;;31.35;31.06;100341.66;5036291;28;45593;-73
2022/10/26 10:19:37;;;;;;;;;2.33;1.67;;;;;31.35;30.85;100338.97;5036932;28;45457;-74
2022/10/26 10:22:17;;;;;;;;;6.00;6.00;;;;;31.08;31.37;100328.84;5037309;28;45396;-74
2022/10/26 10:24:53;;;;;;;;;2.00;2.00;;;;;31.06;32.01;100346.09;5035404;28;45499;-73
2022/10/26 10:27:19;;;;;;;;;3.00;1.67;;;;;31.00;32.02;100335.66;5036074;28;46418;-73
2022/10/26 10:29:48;;;;;;;;;2.00;2.00;;;;;30.93;31.90;100345.94;5036902;28;45435;-73
2022/10/26 10:32:32;;;;;;;;;3.00;2.00;;;;;30.87;32.34;100333.63;5035468;28;45399;-73
2022/10/26 10:34:59;;;;;;;;;1.00;1.00;;;;;31.10;32.12;100340.44;5035707;28;45354;-73
2022/10/26 10:37:33;;;;;;;;;4.00;2.00;;;;;31.21;31.91;100325.44;5036606;28;46658;-73
2022/10/26 10:40:16;;;;;;;;;2.67;2.00;;;;;30.96;32.13;100329.59;5036091;28;45326;-74
2022/10/26 10:42:44;;;;;;;;;2.00;2.00;;;;;30.36;33.75;100322.16;5036956;28;45385;-73
2022/10/26 10:45:23;;;;;;;;;2.00;2.00;;;;;30.05;34.06;100323.84;5035634;28;45589;-73
2022/10/26 10:48:12;;;;;;;;;3.67;3.67;;;;;30.08;33.93;100322.81;5036474;28;45465;-74
2022/10/26 10:50:49;;;;;;;;;2.67;1.67;;;;;30.27;33.46;100341.53;5036260;28;45464;-74
2022/10/26 10:53:23;;;;;;;;;2.00;2.00;;;;;30.11;33.28;100352.28;5035529;28;45386;-73
2022/10/26 10:56:20;;;;;;;;;2.00;1.00;;;;;29.88;33.12;100346.34;5037134;28;45512;-76
2022/10/26 10:59:24;;;;;;;;;5.00;4.00;;;;;29.49;34.63;100352.81;5036452;28;45663;-74
2022/10/26 11:02:33;;;;;;;;;4.00;2.67;;;;;29.03;36.16;100351.56;5007049;28;45571;-73
2022/10/26 11:05:21;;;;;;;;;3.00;3.00;;;;;28.65;36.54;100296.06;5013147;28;45288;-73
2022/10/26 11:08:01;;;;;;;;;1.33;1.33;;;;;28.95;36.10;100338.53;5036780;28;45588;-74
2022/10/26 11:10:34;;;;;;;;;4.67;4.00;;;;;29.15;36.38;100324.09;5036406;28;45511;-73
2022/10/26 11:13:06;;;;;;;;;2.33;2.00;;;;;29.55;35.57;100347.13;5035080;28;45473;-73
2022/10/26 11:15:37;;;;;;;;;4.00;2.00;;;;;29.61;35.46;100318.16;5035375;28;45493;-73
2022/10/26 11:18:15;;;;;;;;;2.67;2.33;;;;;29.85;35.14;100346.47;5036892;28;45271;-74
2022/10/26 11:20:53;;;;;;;;;2.00;2.00;;;;;29.95;34.52;100333.41;5035975;28;45205;-73
2022/10/26 11:23:21;;;;;;;;;1.67;1.67;;;;;30.12;33.87;100346.81;5035925;28;45259;-73
2022/10/26 11:26:13;;;;;;;;;2.00;2.00;;;;;30.08;33.80;100322.81;5036103;28;45291;-74
2022/10/26 11:28:48;;;;;;;;;4.00;2.00;;;;;30.08;33.48;100338.97;5025139;28;45406;-71
2022/10/26 11:31:40;;;;;;;;;1.33;1.00;;;;;29.88;32.90;100330.19;5035522;28;46447;-72
2022/10/26 11:34:17;;;;;;;;;6.00;4.00;;;;;30.05;33.77;100339.16;5021403;28;45346;-72
2022/10/26 11:36:49;;;;;;;;;1.33;1.33;;;;;30.21;34.04;100326.56;5035897;28;45298;-72
2022/10/26 11:39:37;;;;;;;;;3.00;3.00;;;;;30.62;33.14;100347.69;5036256;28;45465;-73
2022/10/26 11:42:12;;;;;;;;;2.00;2.00;;;;;30.62;32.38;100331.50;5039178;28;46167;-71
2022/10/26 11:44:48;;;;;;;;;2.33;1.33;;;;;30.73;31.78;100344.34;5039351;28;45263;-73
2022/10/26 11:47:21;;;;;;;;;3.00;2.00;;;;;30.75;32.29;100344.28;5039166;28;45527;-72